createdAt,value
2024-04-21T00:12:07.903Z,5.80
2024-04-21T00:27:10.045Z,5.70
2024-04-21T00:42:12.145Z,5.60
2024-04-21T00:57:14.349Z,5.70
2024-04-21T01:12:16.374Z,5.80
2024-04-21T01:27:18.411Z,5.90
2024-04-21T01:42:20.857Z,5.90
2024-04-21T01:57:22.887Z,5.90
2024-04-21T02:12:24.967Z,5.90
2024-04-21T02:27:27.199Z,5.80
2024-04-21T02:42:29.258Z,5.50
2024-04-21T02:57:33.412Z,5.30
2024-04-21T03:12:36.886Z,5.10
2024-04-21T03:27:38.924Z,5.10
2024-04-21T03:42:40.959Z,5.00
2024-04-21T03:57:42.983Z,4.80
2024-04-21T04:12:47.801Z,4.80
2024-04-21T04:27:50.241Z,4.80
2024-04-21T04:42:52.441Z,4.80
2024-04-21T04:57:54.613Z,4.70
2024-04-21T05:12:56.786Z,5.00
2024-04-21T05:27:58.995Z,5.60
2024-04-21T05:43:01.109Z,5.80
2024-04-21T05:58:03.332Z,6.10
2024-04-21T06:13:08.760Z,6.50
2024-04-21T06:28:13.035Z,6.90
2024-04-21T06:43:15.279Z,7.30
2024-04-21T06:58:21.315Z,7.60
2024-04-21T07:13:24.835Z,7.80
2024-04-21T07:28:27.327Z,7.90
2024-04-21T07:43:29.576Z,8.30
2024-04-21T07:58:32.016Z,8.40
2024-04-21T08:13:34.335Z,8.70
2024-04-21T08:28:36.965Z,9.20
2024-04-21T08:43:40.848Z,9.40
2024-04-21T08:58:44.263Z,9.40
2024-04-21T09:13:46.307Z,9.70
2024-04-21T09:28:48.408Z,9.90
2024-04-21T09:43:52.392Z,10.00
2024-04-21T09:58:54.854Z,10.20
2024-04-21T10:14:01.214Z,10.10
2024-04-21T10:29:14.052Z,10.20
2024-04-21T10:44:16.187Z,10.10
2024-04-21T10:59:18.534Z,9.90
2024-04-21T11:14:20.668Z,9.40
2024-04-21T11:29:24.126Z,8.80
2024-04-21T11:44:27.579Z,8.50
2024-04-21T11:59:31.264Z,8.50
2024-04-21T12:14:36.136Z,8.80
2024-04-21T12:29:38.277Z,8.90
2024-04-21T12:44:40.351Z,9.10
2024-04-21T12:59:45.769Z,9.00
2024-04-21T13:14:49.947Z,8.90
2024-04-21T13:29:53.275Z,8.70
2024-04-21T13:44:55.800Z,8.70
2024-04-21T13:59:58.112Z,8.60
2024-04-21T14:15:00.619Z,8.40
2024-04-21T14:30:03.326Z,8.40
2024-04-21T14:45:09.646Z,8.30
2024-04-21T15:00:14.033Z,8.10
2024-04-21T15:15:16.114Z,7.90
2024-04-21T15:30:20.893Z,7.80
2024-04-21T15:45:22.978Z,7.50
2024-04-21T16:00:25.134Z,7.20
2024-04-21T16:15:27.247Z,6.90
2024-04-21T16:30:29.935Z,6.30
2024-04-21T16:45:32.807Z,5.90
2024-04-21T17:00:35.143Z,5.50
2024-04-21T17:15:37.372Z,5.10
2024-04-21T17:30:39.680Z,4.80
2024-04-21T17:45:42.195Z,5.00
2024-04-21T18:00:44.324Z,5.10
2024-04-21T18:15:50.739Z,5.20
2024-04-21T18:30:52.919Z,5.20
2024-04-21T18:45:55.073Z,5.10
2024-04-21T19:01:05.968Z,5.20
2024-04-21T19:16:09.131Z,5.10
2024-04-21T19:31:11.970Z,5.10
2024-04-21T19:46:14.082Z,5.10
2024-04-21T20:01:19.183Z,5.20
2024-04-21T20:16:39.796Z,5.20
2024-04-21T20:31:42.037Z,5.30
2024-04-21T20:46:44.417Z,5.10
2024-04-21T21:01:46.595Z,5.20
2024-04-21T21:16:48.648Z,5.10
2024-04-21T21:31:50.911Z,5.10
2024-04-21T21:46:52.991Z,5.00
2024-04-21T22:01:55.181Z,5.00
2024-04-21T22:16:57.357Z,5.00
2024-04-21T22:31:59.567Z,4.90
2024-04-21T22:47:01.931Z,4.90
2024-04-21T23:02:04.258Z,4.90
2024-04-21T23:17:07.424Z,4.80
2024-04-21T23:32:09.942Z,4.80
2024-04-21T23:47:12.300Z,4.80
